Impacts TAF Board
For situational awareness. Not to be used for flight planning purposes.
IDs:

KNEW - New Orleans/Lakefron, LA, US

Issued at 2333 UTC 29 Jun 2022
Updated at 0447 UTC 30 Jun 2022
Potential Impact None Slight Moderate High
Time0353Z 30/05Z 30/06Z 30/07Z 30/08Z 30/09Z 30/10Z 30/11Z 30/12Z 30/13Z 30/14Z 30/15Z 30/16Z 30/17Z>>
Type OBS PRVL PRVL PRVL PRVL PRVL PRVL PRVL PRVL PRVL PRVL PRVL PRVL PRVL
VIS 10 >6 >6 >6 >6 >6 >6 >6 >6 >6 >6 >6 >6 >6
CIG -- 110 100 100 100 100 100 100 100 100 100 90 90 90
Cover CLR OVC BKN BKN BKN BKN BKN BKN BKN BKN BKN BKN BKN BKN
FltCat VFR VFR VFR VFR VFR VFR VFR VFR VFR VFR VFR VFR VFR VFR
WX -- -- VCTS VCTS VCTS VCTS VCTS VCTS VCTS VCTS VCTS -SHRA VCTS -SHRA VCTS -SHRA VCTS
WDir 120 130 140 140 140 140 140 140 140 140 140 70 70 70
WSpd 6 7 5 5 5 5 5 5 5 5 5 8 8 8
WGst -- -- -- -- -- -- -- -- -- -- -- -- -- --
WSHgt -- -- -- -- -- -- -- -- -- -- -- -- -- --
WSDir -- -- -- -- -- -- -- -- -- -- -- -- -- --
WSSpd -- -- -- -- -- -- -- -- -- -- -- -- -- --
Raw TAF
KNEW 292333Z 3000/3024 01004KT P6SM VCTS FEW035 SCT060CB BKN250
  FM300300 13007KT P6SM SCT035 OVC110
  FM300600 14005KT P6SM VCTS SCT030CB BKN100
  FM301500 07008KT P6SM -SHRA VCTS SCT025CB BKN090


Raw METAR
KNEW 300353Z 12006KT 10SM CLR 28/24 A3011 RMK AO2 SLP189 T02780239
KNEW 300253Z 08006KT 10SM CLR 27/23 A3009 RMK AO2 RAE0159 SLP184 P0000 60020 T02720233 50000
KNEW 300211Z 10005KT 10SM FEW075 BKN090 BKN120 27/23 A3010 RMK AO2 RAE0159 P0000 T02670228
KNEW 300153Z 10005KT 9SM -TSRA SCT039 SCT075 OVC120 27/23 A3010 RMK AO2 LTG DSNT N AND NW RAE0058B24 TSB50 SLP187 P0014 T02670233
KNEW 300143Z 10003KT 4SM +RA BKN034 BKN060 OVC110 26/23 A3010 RMK AO2 LTG DSNT N AND NW RAE0058B24 P0014 T02610228
KNEW 300136Z 11007KT 2 1/2SM +RA BKN034 BKN070 OVC090 27/23 A3010 RMK AO2 VIS 1 1/2V5 LTG DSNT NW RAE0058B24 P0011 T02670233

METAR Board
Radar Display
Forecast Discussion
For situational awareness. Not to be used for flight planning purposes.